Time;durP1;ratioP1;P1;durP2;ratioP2;P2;SDS_P1;SDS_P2;PMS_P1;PMS_P2;Temp;Humidity;BMP_temperature;BMP_pressure;BME280_temperature;BME280_humidity;BME280_pressure;Samples;Min_cycle;Max_cycle;Signal;HPM_P1;HPM_P2
2022/08/16 00:02:23;;;;;;;;;;;21.70;91.70;;;;;;4992753;28;19929;-83
2022/08/16 00:04:51;;;;;;;;;;;21.70;91.70;;;;;;5015300;28;19929;-85
2022/08/16 00:07:18;;;;;;;;;;;21.80;91.60;;;;;;4999057;28;19925;-84
2022/08/16 00:09:47;;;;;;;;;;;21.70;91.50;;;;;;4984121;28;19929;-84
2022/08/16 00:12:14;;;;;;;;;;;21.80;91.50;;;;;;5013192;28;19936;-84
2022/08/16 00:14:44;;;;;;;;;;;21.70;91.50;;;;;;5013781;28;19936;-85
2022/08/16 00:17:12;;;;;;;;;;;21.70;91.40;;;;;;5012744;28;20199;-83
2022/08/16 00:19:46;;;;;;;;;;;21.70;91.40;;;;;;5018107;28;19934;-85
2022/08/16 00:22:19;;;;;;;;;;;21.70;91.40;;;;;;4985797;28;19933;-83
2022/08/16 00:24:54;;;;;;;;;;;21.70;91.30;;;;;;4974903;28;19925;-84
2022/08/16 00:27:22;;;;;;;;;;;21.70;91.30;;;;;;5006010;28;20444;-83
2022/08/16 00:29:49;;;;;;;;;;;21.40;91.30;;;;;;4985674;28;19933;-85
2022/08/16 00:32:38;;;;;;;;;;;21.60;91.30;;;;;;5000936;28;19929;-84
2022/08/16 00:35:09;;;;;;;;;;;21.60;91.40;;;;;;5006721;28;19936;-84
2022/08/16 00:37:43;;;;;;;;;;;21.50;91.40;;;;;;4991400;28;19932;-84
2022/08/16 00:40:29;;;;;;;;;;;21.50;91.30;;;;;;4988625;28;19929;-85
2022/08/16 00:43:06;;;;;;;;;;;21.50;91.30;;;;;;5008176;28;19929;-84
2022/08/16 00:45:59;;;;;;;;;;;21.60;91.40;;;;;;5002068;28;19936;-83
2022/08/16 00:48:49;;;;;;;;;;;21.40;91.30;;;;;;4992161;28;19929;-84
2022/08/16 00:51:17;;;;;;;;;;;21.40;91.30;;;;;;5020065;28;20764;-85
2022/08/16 00:53:48;;;;;;;;;;;21.40;91.30;;;;;;5007847;28;20365;-85
2022/08/16 00:56:18;;;;;;;;;;;21.40;91.30;;;;;;4995194;28;19925;-85
2022/08/16 00:59:07;;;;;;;;;;;21.40;91.30;;;;;;5009864;28;19933;-84
2022/08/16 01:01:34;;;;;;;;;;;21.40;91.30;;;;;;5027103;28;19937;-86
2022/08/16 01:04:03;;;;;;;;;;;21.30;91.30;;;;;;4977483;28;19926;-82
2022/08/16 01:06:32;;;;;;;;;;;21.30;91.40;;;;;;5013740;28;19929;-83
2022/08/16 01:09:21;;;;;;;;;;;21.30;91.40;;;;;;4994690;28;19936;-84
2022/08/16 01:11:49;;;;;;;;;;;21.30;91.50;;;;;;5022067;28;19932;-83
2022/08/16 01:14:27;;;;;;;;;;;21.30;91.70;;;;;;5014321;28;20313;-83
2022/08/16 01:16:58;;;;;;;;;;;21.30;91.60;;;;;;5016097;28;19925;-86
2022/08/16 01:19:29;;;;;;;;;;;21.20;91.60;;;;;;5009975;28;19930;-85
2022/08/16 01:22:15;;;;;;;;;;;20.70;91.60;;;;;;5025593;28;19929;-84
2022/08/16 01:25:16;;;;;;;;;;;21.20;91.80;;;;;;4973204;28;19926;-86
2022/08/16 01:27:53;;;;;;;;;;;21.20;91.80;;;;;;5008033;28;19951;-86
2022/08/16 01:30:22;;;;;;;;;;;21.10;92.10;;;;;;4966374;28;19930;-84
2022/08/16 01:32:56;;;;;;;;;;;21.20;92.30;;;;;;4997608;28;20373;-83
2022/08/16 01:35:43;;;;;;;;;;;21.10;91.90;;;;;;5006199;28;20253;-83
2022/08/16 01:38:17;;;;;;;;;;;21.10;92.10;;;;;;4969086;28;19932;-84
2022/08/16 01:40:49;;;;;;;;;;;21.10;92.40;;;;;;5025474;28;19930;-83
2022/08/16 01:43:17;;;;;;;;;;;21.10;92.30;;;;;;4994534;28;19926;-83
2022/08/16 01:45:45;;;;;;;;;;;21.10;92.30;;;;;;4978817;28;20346;-82
2022/08/16 01:48:25;;;;;;;;;;;21.10;92.60;;;;;;4996232;28;19941;-83
2022/08/16 01:50:55;;;;;;;;;;;21.00;92.30;;;;;;4978960;28;19932;-82
2022/08/16 01:53:36;;;;;;;;;;;21.00;92.50;;;;;;4982000;28;19936;-83
2022/08/16 01:56:27;;;;;;;;;;;21.00;92.70;;;;;;5025847;28;19952;-85
2022/08/16 01:58:56;;;;;;;;;;;21.00;92.70;;;;;;4982178;28;19926;-85
2022/08/16 02:01:25;;;;;;;;;;;20.90;92.70;;;;;;4992275;28;19925;-84
2022/08/16 02:03:56;;;;;;;;;;;20.90;92.90;;;;;;4996835;28;19936;-82
2022/08/16 02:06:39;;;;;;;;;;;21.00;93.00;;;;;;4995561;28;19932;-85
2022/08/16 02:09:14;;;;;;;;;;;20.90;92.90;;;;;;5030737;28;19933;-85
2022/08/16 02:11:47;;;;;;;;;;;20.90;93.00;;;;;;4989486;28;19925;-85
2022/08/16 02:14:21;;;;;;;;;;;21.20;93.50;;;;;;5016972;28;19933;-84
2022/08/16 02:17:03;;;;;;;;;;;20.90;93.70;;;;;;4998205;28;19925;-84
2022/08/16 02:19:32;;;;;;;;;;;20.90;93.60;;;;;;5017566;28;19929;-85
2022/08/16 02:22:21;;;;;;;;;;;20.90;93.40;;;;;;5022211;28;19933;-85
2022/08/16 02:25:04;;;;;;;;;;;20.80;94.00;;;;;;4997446;28;19940;-84
2022/08/16 02:27:34;;;;;;;;;;;20.80;94.20;;;;;;4997957;28;19932;-84
2022/08/16 02:30:04;;;;;;;;;;;20.80;94.10;;;;;;4983781;28;19932;-84
2022/08/16 02:32:33;;;;;;;;;;;20.70;94.80;;;;;;4992340;28;19925;-84
2022/08/16 02:35:20;;;;;;;;;;;20.70;94.30;;;;;;4970703;28;20309;-85
2022/08/16 02:37:50;;;;;;;;;;;20.70;94.40;;;;;;5003841;28;19936;-85
2022/08/16 02:40:25;;;;;;;;;;;20.70;94.60;;;;;;5001185;28;19930;-84
2022/08/16 02:42:53;;;;;;;;;;;20.80;95.00;;;;;;4990459;28;19925;-84
2022/08/16 02:45:23;;;;;;;;;;;20.70;94.80;;;;;;5034916;28;19929;-85
2022/08/16 02:47:55;;;;;;;;;;;20.70;95.10;;;;;;5016483;28;19929;-84
2022/08/16 02:50:42;;;;;;;;;;;20.70;94.90;;;;;;4989270;28;20293;-83
2022/08/16 02:53:29;;;;;;;;;;;20.70;94.90;;;;;;5018601;28;19932;-84
2022/08/16 02:55:57;;;;;;;;;;;20.70;95.30;;;;;;4972126;28;19925;-83
2022/08/16 02:58:27;;;;;;;;;;;20.80;95.10;;;;;;5022754;28;19925;-84
2022/08/16 03:00:57;;;;;;;;;;;20.80;95.10;;;;;;4995567;28;19929;-84
2022/08/16 03:03:26;;;;;;;;;;;20.80;95.30;;;;;;4994518;28;19926;-86
2022/08/16 03:06:18;;;;;;;;;;;20.70;95.40;;;;;;4992868;28;19936;-84
2022/08/16 03:09:13;;;;;;;;;;;20.70;95.50;;;;;;5018799;28;19926;-84
2022/08/16 03:11:47;;;;;;;;;;;20.80;95.80;;;;;;5004021;28;20415;-85
2022/08/16 03:14:17;;;;;;;;;;;20.70;95.50;;;;;;5002277;28;19930;-85
2022/08/16 03:16:49;;;;;;;;;;;20.80;96.20;;;;;;4993875;28;19926;-84
2022/08/16 03:19:29;;;;;;;;;;;20.70;95.80;;;;;;5031625;28;19925;-83
2022/08/16 03:22:17;;;;;;;;;;;20.70;96.00;;;;;;5008287;28;19926;-84
2022/08/16 03:24:57;;;;;;;;;;;20.90;96.10;;;;;;4980120;28;19925;-84
2022/08/16 03:27:26;;;;;;;;;;;20.70;96.00;;;;;;4991536;28;19933;-83
2022/08/16 03:30:00;;;;;;;;;;;20.70;96.10;;;;;;4996780;28;19925;-85
2022/08/16 03:32:28;;;;;;;;;;;20.70;96.00;;;;;;4996236;28;19933;-84
2022/08/16 03:34:56;;;;;;;;;;;20.70;96.00;;;;;;4992074;28;19925;-84
2022/08/16 03:37:24;;;;;;;;;;;20.70;96.30;;;;;;4993076;28;19925;-84
2022/08/16 03:39:51;;;;;;;;;;;20.70;96.60;;;;;;4991487;28;20081;-84
2022/08/16 03:42:29;;;;;;;;;;;20.60;96.30;;;;;;5014104;28;19960;-85
2022/08/16 03:44:57;;;;;;;;;;;20.70;96.30;;;;;;5022529;28;19930;-85
2022/08/16 03:47:33;;;;;;;;;;;20.60;96.40;;;;;;4997768;28;19929;-83
2022/08/16 03:50:05;;;;;;;;;;;20.60;96.50;;;;;;5004236;28;19930;-85
2022/08/16 03:52:52;;;;;;;;;;;20.60;96.50;;;;;;4986431;28;19925;-85
2022/08/16 03:55:31;;;;;;;;;;;20.50;96.50;;;;;;5009638;28;19945;-85
2022/08/16 03:58:12;;;;;;;;;;;20.60;96.50;;;;;;4990865;28;19929;-85
2022/08/16 04:00:41;;;;;;;;;;;20.60;96.70;;;;;;4995730;28;20491;-83
2022/08/16 04:03:14;;;;;;;;;;;20.50;96.70;;;;;;5002414;28;19926;-86
2022/08/16 04:05:47;;;;;;;;;;;20.60;96.80;;;;;;4975782;28;19929;-84
2022/08/16 04:08:18;;;;;;;;;;;20.50;96.90;;;;;;4993361;28;20373;-83
2022/08/16 04:10:58;;;;;;;;;;;20.50;96.80;;;;;;5003236;28;19925;-84
2022/08/16 04:13:30;;;;;;;;;;;20.60;96.90;;;;;;4984224;28;20455;-83
2022/08/16 04:16:19;;;;;;;;;;;20.50;96.80;;;;;;5027457;28;19936;-84
2022/08/16 04:18:59;;;;;;;;;;;20.60;96.80;;;;;;5000774;28;19925;-83
2022/08/16 04:21:34;;;;;;;;;;;20.60;96.80;;;;;;4998403;28;19936;-84
2022/08/16 04:24:02;;;;;;;;;;;20.60;97.10;;;;;;4982114;28;19936;-84
2022/08/16 04:26:35;;;;;;;;;;;20.50;96.90;;;;;;4992427;28;20579;-85
2022/08/16 04:29:03;;;;;;;;;;;20.50;96.90;;;;;;4990986;28;19932;-84
2022/08/16 04:31:52;;;;;;;;;;;20.50;97.00;;;;;;4983340;28;19925;-84
2022/08/16 04:34:26;;;;;;;;;;;20.50;97.10;;;;;;5027392;28;19925;-85
2022/08/16 04:36:56;;;;;;;;;;;20.50;97.00;;;;;;5005253;28;20700;-82
2022/08/16 04:39:25;;;;;;;;;;;20.50;97.00;;;;;;4993515;28;19933;-84
2022/08/16 04:42:16;;;;;;;;;;;20.50;97.10;;;;;;5012910;28;19934;-84
2022/08/16 04:44:46;;;;;;;;;;;20.70;97.10;;;;;;5025774;28;19926;-84
2022/08/16 04:47:25;;;;;;;;;;;20.40;97.10;;;;;;5028096;28;19933;-83
2022/08/16 04:50:05;;;;;;;;;;;20.40;97.30;;;;;;4980647;28;20469;-84
2022/08/16 04:52:35;;;;;;;;;;;20.40;97.40;;;;;;5010583;28;19929;-83
2022/08/16 04:55:05;;;;;;;;;;;20.30;97.50;;;;;;4969861;28;19940;-84
2022/08/16 04:57:35;;;;;;;;;;;20.30;97.50;;;;;;4993175;28;19925;-84
2022/08/16 05:00:08;;;;;;;;;;;20.40;97.50;;;;;;5009189;28;19949;-84
2022/08/16 05:02:56;;;;;;;;;;;20.40;97.50;;;;;;5017621;28;20307;-84
2022/08/16 05:05:39;;;;;;;;;;;20.40;97.40;;;;;;4996794;28;19926;-84
2022/08/16 05:08:27;;;;;;;;;;;20.40;97.40;;;;;;5011738;28;19929;-83
2022/08/16 05:11:13;;;;;;;;;;;20.40;97.30;;;;;;4995670;28;20306;-84
2022/08/16 05:13:44;;;;;;;;;;;20.40;97.30;;;;;;5015668;28;19933;-83
2022/08/16 05:16:20;;;;;;;;;;;20.40;97.20;;;;;;5032160;28;20016;-82
2022/08/16 05:19:00;;;;;;;;;;;20.50;97.20;;;;;;4982115;28;19930;-84
2022/08/16 05:21:34;;;;;;;;;;;20.50;97.20;;;;;;5023761;28;19934;-83
2022/08/16 05:24:07;;;;;;;;;;;20.50;97.20;;;;;;4994254;28;20412;-82
2022/08/16 05:26:37;;;;;;;;;;;20.50;97.20;;;;;;4977764;28;19933;-83
2022/08/16 05:29:12;;;;;;;;;;;20.50;97.20;;;;;;4979465;28;19929;-84
2022/08/16 05:31:58;;;;;;;;;;;20.50;97.10;;;;;;4987803;28;20390;-84
2022/08/16 05:34:26;;;;;;;;;;;20.50;97.10;;;;;;4977065;28;19925;-84
2022/08/16 05:36:56;;;;;;;;;;;20.50;97.00;;;;;;4992004;28;19933;-83
2022/08/16 05:39:32;;;;;;;;;;;20.50;97.20;;;;;;5008291;28;20336;-83
2022/08/16 05:42:07;;;;;;;;;;;20.60;97.20;;;;;;5005366;28;19925;-83
2022/08/16 05:44:37;;;;;;;;;;;20.50;97.20;;;;;;5001037;28;19925;-83
2022/08/16 05:47:08;;;;;;;;;;;20.60;97.30;;;;;;4999268;28;19929;-82
2022/08/16 05:49:42;;;;;;;;;;;20.60;97.20;;;;;;4973601;28;19929;-82
2022/08/16 05:52:11;;;;;;;;;;;20.50;97.20;;;;;;4996057;28;19933;-84
2022/08/16 05:54:42;;;;;;;;;;;20.50;97.30;;;;;;4998431;28;20120;-82
2022/08/16 05:57:18;;;;;;;;;;;20.50;97.40;;;;;;4995853;28;19929;-84
2022/08/16 05:59:49;;;;;;;;;;;20.50;97.30;;;;;;5016768;28;19925;-83
2022/08/16 06:02:30;;;;;;;;;;;20.50;97.40;;;;;;5013707;28;19932;-83
2022/08/16 06:05:02;;;;;;;;;;;20.50;97.50;;;;;;4992266;28;19925;-84
2022/08/16 06:07:30;;;;;;;;;;;20.50;97.50;;;;;;4991802;28;19937;-82
2022/08/16 06:10:08;;;;;;;;;;;20.60;97.50;;;;;;5002341;28;20369;-85
2022/08/16 06:12:37;;;;;;;;;;;20.60;97.50;;;;;;4976469;28;19932;-83
2022/08/16 06:15:09;;;;;;;;;;;20.60;97.40;;;;;;5024017;28;19953;-83
2022/08/16 06:17:40;;;;;;;;;;;20.60;97.50;;;;;;5006267;28;19936;-83
2022/08/16 06:20:24;;;;;;;;;;;20.70;97.60;;;;;;4983349;28;19957;-83
2022/08/16 06:23:12;;;;;;;;;;;22.00;97.80;;;;;;5040260;28;20806;-82
2022/08/16 06:25:59;;;;;;;;;;;20.80;97.50;;;;;;4994529;28;20408;-82
2022/08/16 06:28:32;;;;;;;;;;;20.80;97.50;;;;;;5005829;28;19937;-83
2022/08/16 06:31:10;;;;;;;;;;;20.90;97.50;;;;;;4972465;28;19937;-86
2022/08/16 06:33:45;;;;;;;;;;;20.90;97.40;;;;;;4979161;28;19936;-84
2022/08/16 06:36:16;;;;;;;;;;;21.00;97.50;;;;;;5023977;28;19937;-85
2022/08/16 06:39:07;;;;;;;;;;;21.00;97.30;;;;;;5022234;28;19925;-85
2022/08/16 06:42:05;;;;;;;;;;;21.10;97.30;;;;;;5010285;28;19932;-85
2022/08/16 06:44:52;;;;;;;;;;;21.10;97.10;;;;;;4997056;28;19949;-84
2022/08/16 06:47:39;;;;;;;;;;;21.20;97.10;;;;;;4999694;28;19926;-83
2022/08/16 06:50:24;;;;;;;;;;;21.20;97.30;;;;;;4992171;28;19925;-85
2022/08/16 06:52:58;;;;;;;;;;;21.20;97.20;;;;;;4958812;28;19984;-84
2022/08/16 06:55:30;;;;;;;;;;;21.20;97.10;;;;;;4993002;28;19936;-84
2022/08/16 06:58:05;;;;;;;;;;;21.20;97.10;;;;;;4991911;28;19929;-83
2022/08/16 07:00:50;;;;;;;;;;;21.30;97.10;;;;;;5005386;28;19930;-84
2022/08/16 07:03:20;;;;;;;;;;;21.30;97.10;;;;;;5005862;28;19933;-84
2022/08/16 07:06:00;;;;;;;;;;;21.30;97.10;;;;;;4970552;28;19956;-84
2022/08/16 07:08:34;;;;;;;;;;;21.40;96.90;;;;;;4973074;28;19933;-82
2022/08/16 07:11:04;;;;;;;;;;;21.40;96.80;;;;;;4989488;28;20308;-84
2022/08/16 07:13:36;;;;;;;;;;;21.70;96.90;;;;;;4995708;28;19929;-84
2022/08/16 07:16:34;;;;;;;;;;;21.60;96.80;;;;;;4993061;28;19932;-84
2022/08/16 07:19:02;;;;;;;;;;;21.60;96.70;;;;;;5006544;28;20431;-84
2022/08/16 07:21:35;;;;;;;;;;;21.60;96.80;;;;;;4998779;28;19936;-85
2022/08/16 07:24:23;;;;;;;;;;;21.70;96.70;;;;;;5004452;28;19925;-80
2022/08/16 07:27:03;;;;;;;;;;;21.80;96.60;;;;;;5012001;28;19925;-83
2022/08/16 07:29:36;;;;;;;;;;;21.80;96.50;;;;;;4986870;28;19929;-85
2022/08/16 07:32:08;;;;;;;;;;;21.90;96.40;;;;;;4968203;28;19926;-84
2022/08/16 07:34:36;;;;;;;;;;;21.90;96.30;;;;;;4994378;28;20539;-81
2022/08/16 07:37:14;;;;;;;;;;;21.90;96.30;;;;;;5005409;28;19932;-82
2022/08/16 07:40:09;;;;;;;;;;;22.00;96.20;;;;;;4987813;28;20425;-83
2022/08/16 07:42:42;;;;;;;;;;;22.00;96.10;;;;;;5021148;28;20316;-85
2022/08/16 07:45:12;;;;;;;;;;;22.00;96.20;;;;;;4978203;28;19929;-86
2022/08/16 07:47:48;;;;;;;;;;;22.00;96.10;;;;;;4985076;28;20246;-86
2022/08/16 07:50:18;;;;;;;;;;;22.00;96.20;;;;;;4976919;28;19929;-87
2022/08/16 07:53:06;;;;;;;;;;;22.00;96.10;;;;;;4989944;28;19934;-86
2022/08/16 07:55:35;;;;;;;;;;;22.00;96.10;;;;;;4988310;28;19938;-86
2022/08/16 07:58:17;;;;;;;;;;;22.10;96.00;;;;;;4986802;28;19930;-87
2022/08/16 08:01:08;;;;;;;;;;;22.20;95.80;;;;;;5018620;28;19933;-85
2022/08/16 08:03:48;;;;;;;;;;;22.30;95.50;;;;;;5000713;28;20669;-86
2022/08/16 08:06:22;;;;;;;;;;;22.40;95.40;;;;;;4991385;28;19940;-86
2022/08/16 08:08:53;;;;;;;;;;;22.50;95.20;;;;;;4988918;28;19952;-87
2022/08/16 08:11:27;;;;;;;;;;;22.70;95.10;;;;;;5011247;28;20273;-87
2022/08/16 08:13:59;;;;;;;;;;;22.70;94.80;;;;;;4993018;28;19925;-87
2022/08/16 08:16:32;;;;;;;;;;;22.90;94.60;;;;;;4988768;28;19973;-85
2022/08/16 08:19:03;;;;;;;;;;;22.90;94.60;;;;;;4996258;28;19934;-86
2022/08/16 08:21:34;;;;;;;;;;;22.90;94.30;;;;;;5001729;28;19933;-87
2022/08/16 08:24:33;;;;;;;;;;;23.00;94.40;;;;;;5001639;28;19934;-85
2022/08/16 08:27:05;;;;;;;;;;;23.00;94.40;;;;;;4992079;28;20060;-86
2022/08/16 08:29:35;;;;;;;;;;;23.00;94.10;;;;;;4973036;28;19929;-86
2022/08/16 08:32:05;;;;;;;;;;;23.00;94.00;;;;;;4976442;28;20332;-87
2022/08/16 08:34:54;;;;;;;;;;;23.00;94.00;;;;;;5016607;28;19934;-87
2022/08/16 08:37:28;;;;;;;;;;;23.00;94.20;;;;;;5018145;28;19925;-86
2022/08/16 08:40:17;;;;;;;;;;;23.00;94.40;;;;;;5019500;28;19940;-84
2022/08/16 08:42:46;;;;;;;;;;;23.00;94.30;;;;;;5001489;28;19933;-85
2022/08/16 08:45:16;;;;;;;;;;;22.90;94.40;;;;;;5021446;28;19960;-84
2022/08/16 08:48:03;;;;;;;;;;;22.90;94.30;;;;;;5007021;28;19941;-85
2022/08/16 08:50:35;;;;;;;;;;;22.90;94.10;;;;;;4972729;28;19940;-85
2022/08/16 08:53:05;;;;;;;;;;;22.90;93.70;;;;;;5005072;28;19929;-87
2022/08/16 08:55:33;;;;;;;;;;;22.80;94.00;;;;;;5024441;28;20265;-87
2022/08/16 08:58:01;;;;;;;;;;;22.80;93.90;;;;;;4976048;28;19940;-87
2022/08/16 09:00:49;;;;;;;;;;;23.20;93.80;;;;;;5002913;28;20273;-88
2022/08/16 09:03:20;;;;;;;;;;;22.80;94.00;;;;;;4976848;28;19933;-86
2022/08/16 09:05:51;;;;;;;;;;;22.80;94.00;;;;;;5011194;28;19940;-87
2022/08/16 09:08:21;;;;;;;;;;;22.80;94.60;;;;;;5009103;28;19941;-84
2022/08/16 09:11:00;;;;;;;;;;;22.70;94.30;;;;;;5019656;28;19933;-83
2022/08/16 09:13:31;;;;;;;;;;;22.70;94.80;;;;;;4992649;28;20742;-87
2022/08/16 09:16:00;;;;;;;;;;;22.80;95.50;;;;;;4971499;28;19937;-83
2022/08/16 09:18:30;;;;;;;;;;;22.70;95.50;;;;;;4992166;28;19933;-82
2022/08/16 09:21:06;;;;;;;;;;;22.70;95.90;;;;;;5020764;28;19941;-81
2022/08/16 09:23:36;;;;;;;;;;;22.70;95.70;;;;;;4987681;28;19929;-82
2022/08/16 09:26:06;;;;;;;;;;;22.70;95.80;;;;;;4971497;28;20310;-85
2022/08/16 09:28:54;;;;;;;;;;;22.70;96.50;;;;;;5006170;28;19933;-83
2022/08/16 09:31:42;;;;;;;;;;;22.70;96.20;;;;;;4971888;28;19956;-84
2022/08/16 09:34:11;;;;;;;;;;;22.70;97.10;;;;;;4988839;28;19937;-85
2022/08/16 09:36:45;;;;;;;;;;;22.60;97.20;;;;;;5004091;28;19929;-85
2022/08/16 09:39:13;;;;;;;;;;;22.70;96.90;;;;;;4988759;28;19925;-87
2022/08/16 09:41:44;;;;;;;;;;;22.60;96.30;;;;;;4989101;28;19926;-88
2022/08/16 09:44:24;;;;;;;;;;;22.50;96.40;;;;;;5009798;28;19968;-87
2022/08/16 09:47:11;;;;;;;;;;;22.50;96.60;;;;;;4988104;28;19925;-85
2022/08/16 09:49:39;;;;;;;;;;;22.40;97.10;;;;;;4984590;28;19929;-91
2022/08/16 09:52:08;;;;;;;;;;;22.40;97.00;;;;;;4983612;28;19941;-82
2022/08/16 09:54:36;;;;;;;;;;;22.40;96.60;;;;;;5007551;28;19929;-90
2022/08/16 09:57:05;;;;;;;;;;;22.40;97.50;;;;;;4996154;28;19937;-87
2022/08/16 09:59:39;;;;;;;;;;;22.40;97.30;;;;;;4993620;28;19933;-89
2022/08/16 10:02:08;;;;;;;;;;;22.50;97.40;;;;;;4993167;28;19929;-82
2022/08/16 10:04:54;;;;;;;;;;;22.50;97.90;;;;;;4989906;28;19922;-90
2022/08/16 10:07:23;;;;;;;;;;;22.60;97.80;;;;;;4994592;28;19926;-88
2022/08/16 10:09:51;;;;;;;;;;;22.60;97.90;;;;;;4994008;28;19944;-92
2022/08/16 10:15:12;;;;;;;;;;;22.50;98.40;;;;;;4988917;28;20302;-84
2022/08/16 10:17:47;;;;;;;;;;;22.40;98.10;;;;;;5002968;28;20698;-84
2022/08/16 10:20:31;;;;;;;;;;;22.40;98.00;;;;;;5003259;28;19930;-91
2022/08/16 10:23:02;;;;;;;;;;;22.40;98.40;;;;;;5010551;28;19940;-88
2022/08/16 10:25:35;;;;;;;;;;;22.30;98.20;;;;;;5012074;28;19940;-84
2022/08/16 10:28:24;;;;;;;;;;;22.20;98.30;;;;;;5005498;28;19952;-84
2022/08/16 10:30:59;;;;;;;;;;;22.10;98.20;;;;;;5021544;28;20297;-82
2022/08/16 10:33:30;;;;;;;;;;;22.00;98.10;;;;;;5007782;28;19925;-87
2022/08/16 10:36:05;;;;;;;;;;;22.00;98.60;;;;;;5009777;28;19940;-85
2022/08/16 10:38:36;;;;;;;;;;;21.90;98.60;;;;;;5030081;28;19944;-89
2022/08/16 10:41:07;;;;;;;;;;;21.80;98.50;;;;;;4978113;28;20373;-84
2022/08/16 10:43:37;;;;;;;;;;;21.50;99.00;;;;;;5019842;28;19930;-84
2022/08/16 10:46:06;;;;;;;;;;;21.40;99.10;;;;;;4992170;28;19937;-87
2022/08/16 10:48:54;;;;;;;;;;;21.30;98.80;;;;;;5008801;28;19934;-87
2022/08/16 10:51:22;;;;;;;;;;;21.20;98.90;;;;;;4977528;28;19932;-86
2022/08/16 10:54:10;;;;;;;;;;;21.00;99.50;;;;;;4987293;28;19933;-86
2022/08/16 10:57:00;;;;;;;;;;;20.90;99.60;;;;;;4994756;28;20610;-91
2022/08/16 10:59:32;;;;;;;;;;;20.80;99.90;;;;;;5036157;28;19937;-91
2022/08/16 11:02:24;;;;;;;;;;;20.80;99.90;;;;;;5018920;28;19934;-90
2022/08/16 11:05:13;;;;;;;;;;;20.70;99.90;;;;;;5012029;28;19922;-85
2022/08/16 11:07:48;;;;;;;;;;;20.80;99.90;;;;;;5043789;28;19922;-84
2022/08/16 11:10:42;;;;;;;;;;;20.80;99.90;;;;;;4998864;28;19924;-85
2022/08/16 11:13:44;;;;;;;;;;;20.80;99.90;;;;;;4995408;28;20073;-85
2022/08/16 11:16:42;;;;;;;;;;;20.80;99.90;;;;;;5038834;28;19930;-86
2022/08/16 11:19:30;;;;;;;;;;;20.80;99.90;;;;;;5011095;28;19940;-86
2022/08/16 11:22:25;;;;;;;;;;;20.80;99.90;;;;;;5024835;28;19929;-87
2022/08/16 11:25:28;;;;;;;;;;;20.80;99.90;;;;;;5026609;28;19937;-84
2022/08/16 11:28:18;;;;;;;;;;;20.70;99.90;;;;;;5043444;28;19921;-84
2022/08/16 11:31:09;;;;;;;;;;;20.80;99.90;;;;;;5023682;28;19936;-85
2022/08/16 11:33:41;;;;;;;;;;;20.70;99.90;;;;;;5017407;28;19951;-84
2022/08/16 11:36:25;;;;;;;;;;;20.70;99.90;;;;;;5056912;22;19925;-84
2022/08/16 11:38:55;;;;;;;;;;;20.60;99.90;;;;;;5030888;28;19925;-86
2022/08/16 11:41:26;;;;;;;;;;;20.70;99.90;;;;;;5027187;28;19924;-86
2022/08/16 11:43:59;;;;;;;;;;;20.70;99.90;;;;;;5046145;28;20222;-85
2022/08/16 11:46:27;;;;;;;;;;;20.80;99.90;;;;;;5027297;28;19936;-86
2022/08/16 11:49:17;;;;;;;;;;;21.00;99.90;;;;;;5045730;28;19931;-87
2022/08/16 11:51:48;;;;;;;;;;;21.30;99.90;;;;;;5056219;28;20650;-90
2022/08/16 11:54:16;;;;;;;;;;;21.50;99.90;;;;;;5017610;28;20544;-93
2022/08/16 11:56:50;;;;;;;;;;;21.70;99.90;;;;;;5030721;28;19932;-89
2022/08/16 11:59:26;;;;;;;;;;;21.90;99.90;;;;;;5049461;28;19929;-89
2022/08/16 12:01:56;;;;;;;;;;;22.00;99.90;;;;;;5037177;28;20270;-89
2022/08/16 12:04:30;;;;;;;;;;;22.10;99.90;;;;;;5036310;28;20164;-91
2022/08/16 12:07:00;;;;;;;;;;;22.20;99.90;;;;;;5035687;28;19929;-90
2022/08/16 12:09:30;;;;;;;;;;;22.40;99.60;;;;;;5038807;28;19929;-93
2022/08/16 12:11:58;;;;;;;;;;;22.50;99.40;;;;;;5052691;28;19925;-89
2022/08/16 12:14:30;;;;;;;;;;;22.70;99.80;;;;;;5022201;28;19936;-88
2022/08/16 12:17:04;;;;;;;;;;;22.90;98.50;;;;;;5039882;28;19963;-90
2022/08/16 12:19:32;;;;;;;;;;;23.00;98.10;;;;;;5034428;28;19948;-85
2022/08/16 12:22:03;;;;;;;;;;;23.20;98.60;;;;;;5036843;28;20506;-92
2022/08/16 12:24:46;;;;;;;;;;;23.30;98.40;;;;;;5028991;28;20345;-89
2022/08/16 12:27:20;;;;;;;;;;;23.40;98.00;;;;;;5042049;28;19925;-86
2022/08/16 12:29:50;;;;;;;;;;;23.50;97.50;;;;;;5037032;28;19933;-89
2022/08/16 12:32:19;;;;;;;;;;;23.50;97.20;;;;;;5048747;28;19925;-87
2022/08/16 12:35:06;;;;;;;;;;;23.50;97.00;;;;;;5045305;28;19932;-84
2022/08/16 12:37:34;;;;;;;;;;;23.60;97.20;;;;;;5026536;28;19932;-90
2022/08/16 12:40:03;;;;;;;;;;;23.60;96.90;;;;;;5026412;28;19928;-85
2022/08/16 12:42:31;;;;;;;;;;;23.70;96.60;;;;;;5013590;28;19933;-88
2022/08/16 12:45:03;;;;;;;;;;;23.80;96.70;;;;;;5027353;28;19932;-87
2022/08/16 12:50:24;;;;;;;;;;;22.50;95.90;;;;;;5037057;28;19933;-95
2022/08/16 12:53:00;;;;;;;;;;;24.20;95.40;;;;;;5036057;28;19929;-93
2022/08/16 12:55:35;;;;;;;;;;;24.20;93.20;;;;;;5030109;28;19924;-93
2022/08/16 12:58:11;;;;;;;;;;;24.20;95.30;;;;;;5035065;28;19932;-89
2022/08/16 13:00:58;;;;;;;;;;;24.30;94.90;;;;;;5065431;28;19924;-91
2022/08/16 13:03:28;;;;;;;;;;;24.30;94.70;;;;;;5040054;28;19932;-90
2022/08/16 13:06:07;;;;;;;;;;;24.30;94.80;;;;;;5042564;28;19935;-88
2022/08/16 13:08:34;;;;;;;;;;;24.30;94.30;;;;;;5011357;28;19933;-88
2022/08/16 13:11:03;;;;;;;;;;;24.20;94.20;;;;;;5044203;28;19929;-85
2022/08/16 13:13:34;;;;;;;;;;;24.20;94.60;;;;;;5049022;28;20082;-90
2022/08/16 13:16:04;;;;;;;;;;;24.10;93.20;;;;;;5047474;28;19948;-86
2022/08/16 13:18:47;;;;;;;;;;;24.10;94.40;;;;;;5045443;28;19928;-89
2022/08/16 13:21:20;;;;;;;;;;;24.00;94.50;;;;;;5050614;28;20284;-89
2022/08/16 13:23:50;;;;;;;;;;;24.40;94.70;;;;;;5032506;28;19931;-85
2022/08/16 13:26:23;;;;;;;;;;;24.00;95.10;;;;;;5032992;28;19937;-86
2022/08/16 13:28:53;;;;;;;;;;;24.00;95.00;;;;;;5051526;28;19932;-87
2022/08/16 13:31:21;;;;;;;;;;;23.90;94.50;;;;;;5051142;28;19931;-85
2022/08/16 13:33:50;;;;;;;;;;;23.90;93.90;;;;;;5031908;28;19932;-83
2022/08/16 13:36:24;;;;;;;;;;;23.90;94.00;;;;;;5050415;28;19929;-87
2022/08/16 13:39:12;;;;;;;;;;;24.00;94.50;;;;;;5035253;28;19925;-84
2022/08/16 13:41:41;;;;;;;;;;;24.10;94.00;;;;;;5023018;28;19929;-86
2022/08/16 13:44:08;;;;;;;;;;;24.30;94.30;;;;;;5056223;28;20293;-86
2022/08/16 13:46:36;;;;;;;;;;;24.30;94.80;;;;;;5052866;28;19955;-89
2022/08/16 13:49:05;;;;;;;;;;;24.40;93.80;;;;;;5032322;28;19932;-90
2022/08/16 13:51:33;;;;;;;;;;;24.40;93.70;;;;;;5050218;28;19932;-91
2022/08/16 13:54:04;;;;;;;;;;;24.40;94.10;;;;;;5052892;28;19933;-91
2022/08/16 13:56:33;;;;;;;;;;;24.40;93.30;;;;;;5039110;28;20376;-92
2022/08/16 13:59:12;;;;;;;;;;;24.40;93.40;;;;;;5051611;28;19933;-86
2022/08/16 14:01:48;;;;;;;;;;;24.30;93.70;;;;;;5050523;28;20443;-84
2022/08/16 14:04:24;;;;;;;;;;;24.40;93.90;;;;;;5048889;28;20335;-83
2022/08/16 14:06:56;;;;;;;;;;;24.60;93.50;;;;;;5032837;28;19933;-83
2022/08/16 14:09:24;;;;;;;;;;;24.80;93.50;;;;;;5050403;28;19936;-83
2022/08/16 14:11:55;;;;;;;;;;;25.10;92.70;;;;;;5017581;28;19932;-84
2022/08/16 14:14:24;;;;;;;;;;;25.30;93.00;;;;;;5032048;28;19925;-86
2022/08/16 14:16:56;;;;;;;;;;;25.60;93.40;;;;;;5047663;28;19929;-83
2022/08/16 14:19:24;;;;;;;;;;;25.70;92.10;;;;;;5050944;28;19931;-86
2022/08/16 14:21:54;;;;;;;;;;;25.80;92.20;;;;;;5048092;28;19925;-85
2022/08/16 14:24:43;;;;;;;;;;;25.80;91.80;;;;;;5029797;28;19925;-87
2022/08/16 14:27:14;;;;;;;;;;;25.70;92.20;;;;;;5044239;28;20079;-84
2022/08/16 14:29:41;;;;;;;;;;;25.60;91.40;;;;;;5014714;28;19947;-84
2022/08/16 14:32:10;;;;;;;;;;;25.60;91.60;;;;;;5047060;28;19925;-85
2022/08/16 14:34:59;;;;;;;;;;;25.50;90.80;;;;;;5031232;28;19955;-83
2022/08/16 14:37:26;;;;;;;;;;;25.40;91.60;;;;;;5029993;28;20324;-90
2022/08/16 14:39:57;;;;;;;;;;;25.30;91.30;;;;;;5029701;28;19947;-90
2022/08/16 14:42:25;;;;;;;;;;;25.10;91.20;;;;;;5028597;28;19929;-91
2022/08/16 14:44:52;;;;;;;;;;;25.00;90.70;;;;;;5047806;28;20280;-89
2022/08/16 14:47:21;;;;;;;;;;;24.90;90.60;;;;;;5027035;28;19932;-87
2022/08/16 14:49:48;;;;;;;;;;;24.70;91.20;;;;;;5045188;28;20433;-90
2022/08/16 14:52:19;;;;;;;;;;;24.60;91.30;;;;;;5023361;28;19925;-86
2022/08/16 14:55:08;;;;;;;;;;;24.60;91.00;;;;;;5015927;28;19932;-85
2022/08/16 14:57:38;;;;;;;;;;;24.40;91.10;;;;;;5044407;28;19932;-89
2022/08/16 15:00:08;;;;;;;;;;;24.40;91.70;;;;;;5045630;28;19925;-89
2022/08/16 15:02:38;;;;;;;;;;;24.30;91.90;;;;;;5044196;28;19940;-89
2022/08/16 15:05:07;;;;;;;;;;;24.00;91.60;;;;;;5031880;28;19932;-90
2022/08/16 15:07:35;;;;;;;;;;;24.10;92.20;;;;;;5046696;28;19932;-85
2022/08/16 15:10:07;;;;;;;;;;;24.10;92.40;;;;;;5043139;28;19936;-88